Time;durP1;ratioP1;P1;durP2;ratioP2;P2;SDS_P1;SDS_P2;PMS_P1;PMS_P2;Temp;Humidity;BMP_temperature;BMP_pressure;BME280_temperature;BME280_humidity;BME280_pressure;Samples;Min_cycle;Max_cycle;Signal;HPM_P1;HPM_P2
2022/07/01 00:01:07;;;;;;;1.60;0.90;;;20.40;73.80;;;-142.21;100.00;112049.66;5112802;28;20290;-79
2022/07/01 00:03:35;;;;;;;1.20;0.80;;;20.40;73.80;;;-142.21;100.00;112049.66;5112978;28;20296;-77
2022/07/01 00:06:02;;;;;;;1.00;0.90;;;20.30;74.10;;;-142.21;100.00;112049.66;5112693;28;20659;-78
2022/07/01 00:08:29;;;;;;;0.60;0.60;;;20.30;74.00;;;-142.21;100.00;112049.66;5113318;28;20239;-78
2022/07/01 00:10:56;;;;;;;0.87;0.87;;;20.30;73.50;;;-142.21;100.00;112049.66;5112879;28;20244;-77
2022/07/01 00:13:23;;;;;;;0.77;0.60;;;20.30;73.50;;;-142.21;100.00;112049.66;5113385;28;20239;-79
2022/07/01 00:15:50;;;;;;;0.67;0.63;;;20.30;73.60;;;-142.21;100.00;112049.66;5113243;28;20234;-78
2022/07/01 00:18:21;;;;;;;1.07;0.73;;;20.40;73.20;;;-142.21;100.00;112049.66;5112109;28;20640;-78
2022/07/01 00:20:48;;;;;;;0.60;0.60;;;20.40;73.10;;;-142.21;100.00;112049.66;5095405;28;20245;-78
2022/07/01 00:23:16;;;;;;;0.93;0.77;;;20.40;73.30;;;-142.21;100.00;112049.66;5112429;28;20699;-78
2022/07/01 00:25:44;;;;;;;1.17;0.80;;;20.40;73.50;;;-142.21;100.00;112049.66;5113206;28;20225;-78
2022/07/01 00:28:11;;;;;;;2.47;0.70;;;20.50;73.60;;;-142.21;100.00;112049.66;5112553;28;20276;-79
2022/07/01 00:30:39;;;;;;;0.63;0.63;;;20.50;72.70;;;-142.21;100.00;112049.66;5112797;28;20208;-76
2022/07/01 00:33:06;;;;;;;0.50;0.50;;;20.50;73.50;;;-142.21;100.00;112049.66;5112201;28;20211;-79
2022/07/01 00:35:35;;;;;;;1.67;0.80;;;20.40;72.30;;;-142.21;100.00;112049.66;5112982;28;20233;-78
2022/07/01 00:38:02;;;;;;;0.67;0.67;;;20.40;72.40;;;-142.21;100.00;112049.66;5112506;28;20290;-79
2022/07/01 00:40:29;;;;;;;1.00;0.53;;;20.40;72.30;;;-142.21;100.00;112049.66;5112954;28;20252;-79
2022/07/01 00:42:57;;;;;;;0.70;0.70;;;20.40;73.10;;;-142.21;100.00;112049.66;5112414;28;20563;-77
2022/07/01 00:45:24;;;;;;;1.07;0.80;;;20.40;72.80;;;-142.21;100.00;112049.66;5112751;28;20302;-77
2022/07/01 00:47:51;;;;;;;1.00;1.00;;;20.40;72.70;;;-142.21;100.00;112049.66;5113102;28;20214;-78
2022/07/01 00:50:19;;;;;;;0.87;0.50;;;20.30;73.80;;;-142.21;100.00;112049.66;5111875;28;20485;-78
2022/07/01 00:52:47;;;;;;;1.33;0.70;;;20.30;73.60;;;-142.21;100.00;112049.66;5116173;28;20290;-79
2022/07/01 00:55:16;;;;;;;0.80;0.80;;;20.30;72.80;;;-142.21;100.00;112049.66;5116246;28;20318;-79
2022/07/01 00:57:45;;;;;;;0.40;0.40;;;20.20;73.60;;;-142.21;100.00;112049.66;5116713;28;20275;-79
2022/07/01 01:00:16;;;;;;;1.17;0.93;;;20.30;74.00;;;-142.21;100.00;112049.66;5115135;28;20290;-79
2022/07/01 01:02:43;;;;;;;3.73;1.07;;;20.30;74.10;;;-142.21;100.00;112049.66;5116516;28;20261;-79
2022/07/01 01:05:13;;;;;;;1.83;0.80;;;20.30;74.60;;;-142.21;100.00;112049.66;5116206;28;20286;-79
2022/07/01 01:07:40;;;;;;;0.67;0.67;;;20.40;73.80;;;-142.21;100.00;112049.66;5116963;28;20257;-79
2022/07/01 01:10:10;;;;;;;1.23;0.63;;;20.40;73.80;;;-142.21;100.00;112049.66;5115889;28;20273;-79
2022/07/01 01:12:38;;;;;;;0.77;0.77;;;20.50;74.10;;;-142.21;100.00;112049.66;5095987;28;20235;-78
2022/07/01 01:15:07;;;;;;;0.60;0.60;;;20.50;73.90;;;-142.21;100.00;112049.66;5095461;28;20260;-79
2022/07/01 01:17:34;;;;;;;0.73;0.60;;;20.40;73.20;;;-142.21;100.00;112049.66;5096395;28;20287;-78
2022/07/01 01:20:02;;;;;;;0.60;0.60;;;20.40;73.10;;;-142.21;100.00;112049.66;5095711;28;20213;-79
2022/07/01 01:22:30;;;;;;;2.27;0.63;;;20.40;73.10;;;-142.21;100.00;112049.66;5096230;28;20207;-79
2022/07/01 01:24:59;;;;;;;0.50;0.50;;;20.40;72.90;;;-142.21;100.00;112049.66;5096172;28;20563;-79
2022/07/01 01:27:26;;;;;;;0.67;0.67;;;20.40;72.80;;;-142.21;100.00;112049.66;5096085;28;20203;-78
2022/07/01 01:29:54;;;;;;;2.07;0.57;;;20.30;72.90;;;-142.21;100.00;112049.66;5102273;28;20206;-76
2022/07/01 01:32:21;;;;;;;1.00;0.90;;;20.30;73.20;;;-142.21;100.00;112049.66;5115975;28;20203;-78
2022/07/01 01:34:48;;;;;;;0.90;0.90;;;20.20;73.40;;;-142.21;100.00;112049.66;5116225;28;20227;-79
2022/07/01 01:37:15;;;;;;;0.70;0.70;;;20.20;74.00;;;-142.21;100.00;112049.66;5115592;28;20235;-78
2022/07/01 01:39:44;;;;;;;0.60;0.60;;;20.30;74.30;;;-142.21;100.00;112049.66;5115950;28;20204;-79
2022/07/01 01:42:11;;;;;;;0.77;0.60;;;20.30;74.10;;;-142.21;100.00;112049.66;5115570;28;20286;-79
2022/07/01 01:44:39;;;;;;;0.57;0.57;;;20.30;74.40;;;-142.21;100.00;112049.66;5115768;28;20324;-79
2022/07/01 01:47:06;;;;;;;0.97;0.90;;;20.30;74.30;;;-142.21;100.00;112049.66;5063431;28;20624;-79
2022/07/01 01:49:33;;;;;;;0.50;0.50;;;20.30;74.50;;;-142.21;100.00;112049.66;5116113;28;20619;-76
2022/07/01 01:52:01;;;;;;;0.70;0.70;;;20.30;74.00;;;-142.21;100.00;112049.66;5116063;28;20212;-79
2022/07/01 01:54:29;;;;;;;1.30;0.80;;;20.20;73.50;;;-142.21;100.00;112049.66;5115831;28;20294;-77
2022/07/01 01:56:57;;;;;;;1.20;0.93;;;20.10;74.70;;;-142.21;100.00;112049.66;5097456;28;20683;-79
2022/07/01 01:59:24;;;;;;;1.60;0.80;;;20.00;74.10;;;-142.21;100.00;112049.66;5115726;28;20248;-78
2022/07/01 02:01:52;;;;;;;0.80;0.70;;;20.00;74.60;;;-142.21;100.00;112049.66;5116105;28;20258;-79
2022/07/01 02:04:19;;;;;;;0.47;0.47;;;20.10;74.80;;;-142.21;100.00;112049.66;5115833;28;20732;-78
2022/07/01 02:06:47;;;;;;;1.90;0.97;;;20.00;74.10;;;-142.21;100.00;112049.66;5115829;28;20253;-78
2022/07/01 02:09:14;;;;;;;1.10;1.00;;;20.00;75.00;;;-142.21;100.00;112049.66;5097493;28;20322;-77
2022/07/01 02:11:42;;;;;;;1.00;0.90;;;20.00;74.60;;;-142.21;100.00;112049.66;5129635;28;20264;-79
2022/07/01 02:14:10;;;;;;;0.80;0.80;;;19.90;74.60;;;-142.21;100.00;112049.66;5129200;28;20469;-79
2022/07/01 02:16:37;;;;;;;1.00;1.00;;;19.70;74.60;;;-142.21;100.00;112049.66;5119577;28;20278;-78
2022/07/01 02:19:06;;;;;;;0.73;0.63;;;19.70;75.30;;;-142.21;100.00;112049.66;5115097;28;20203;-79
2022/07/01 02:21:33;;;;;;;0.80;0.77;;;19.70;75.40;;;-142.21;100.00;112049.66;5115583;28;20210;-78
2022/07/01 02:24:00;;;;;;;1.07;0.80;;;19.60;75.80;;;-142.21;100.00;112049.66;5115533;28;20230;-78
2022/07/01 02:26:28;;;;;;;1.20;0.90;;;19.60;76.10;;;-142.21;100.00;112049.66;5115059;28;20566;-78
2022/07/01 02:28:55;;;;;;;0.80;0.80;;;19.50;76.20;;;-142.21;100.00;112049.66;5115123;28;20210;-78
2022/07/01 02:31:24;;;;;;;0.77;0.77;;;19.40;76.30;;;-142.21;100.00;112049.66;5114857;28;20611;-79
2022/07/01 02:33:51;;;;;;;0.90;0.90;;;19.40;76.60;;;-142.21;100.00;112049.66;5115278;28;20485;-79
2022/07/01 02:36:18;;;;;;;0.70;0.70;;;19.40;76.60;;;-142.21;100.00;112049.66;5114816;28;20679;-79
2022/07/01 02:38:45;;;;;;;1.03;0.73;;;19.50;76.60;;;-142.21;100.00;112049.66;5114919;28;20210;-78
2022/07/01 02:41:12;;;;;;;0.80;0.80;;;19.50;76.10;;;-142.21;100.00;112049.66;5114108;28;20240;-78
2022/07/01 02:43:42;;;;;;;0.60;0.60;;;19.60;76.70;;;-142.21;100.00;112049.66;5115030;28;20203;-79
2022/07/01 02:46:10;;;;;;;0.80;0.80;;;19.70;77.20;;;-142.21;100.00;112049.66;5114173;28;20489;-79
2022/07/01 02:48:38;;;;;;;0.93;0.93;;;19.70;75.60;;;-142.21;100.00;112049.66;5114789;28;20660;-79
2022/07/01 02:51:06;;;;;;;2.43;0.90;;;19.70;75.90;;;-142.21;100.00;112049.66;5113894;28;20660;-78
2022/07/01 02:53:34;;;;;;;1.07;0.70;;;19.70;75.80;;;-142.21;100.00;112049.66;5076653;28;20254;-79
2022/07/01 02:56:01;;;;;;;0.87;0.80;;;19.60;75.60;;;-142.21;100.00;112049.66;5093926;28;20270;-79
2022/07/01 02:58:28;;;;;;;1.87;0.87;;;19.60;76.00;;;-142.21;100.00;112049.66;5113320;28;20246;-79
2022/07/01 03:00:56;;;;;;;0.97;0.90;;;19.60;76.10;;;-142.21;100.00;112049.66;5115034;28;20528;-79
2022/07/01 03:03:23;;;;;;;3.83;1.00;;;19.70;75.70;;;-142.21;100.00;112049.66;5114147;28;20207;-78
2022/07/01 03:05:55;;;;;;;1.20;0.87;;;19.70;75.80;;;-142.21;100.00;112049.66;5114428;28;20775;-79
2022/07/01 03:08:22;;;;;;;0.67;0.63;;;19.80;75.60;;;-142.21;100.00;112049.66;5113780;28;20909;-79
2022/07/01 03:10:49;;;;;;;2.50;1.43;;;19.80;75.20;;;-142.21;100.00;112049.66;5114239;28;20192;-78
2022/07/01 03:13:16;;;;;;;1.20;0.83;;;19.80;75.70;;;-142.21;100.00;112049.66;5114039;28;20250;-78
2022/07/01 03:15:43;;;;;;;1.00;0.80;;;19.70;75.70;;;-142.21;100.00;112049.66;5113532;28;20223;-78
2022/07/01 03:18:10;;;;;;;1.23;1.00;;;19.70;76.00;;;-142.21;100.00;112049.66;5113663;28;20206;-78
2022/07/01 03:20:38;;;;;;;0.77;0.77;;;19.60;75.80;;;-142.21;100.00;112049.66;5114130;28;20286;-79
2022/07/01 03:23:06;;;;;;;0.97;0.90;;;19.70;75.90;;;-142.21;100.00;112049.66;5096693;28;20538;-77
2022/07/01 03:25:35;;;;;;;0.70;0.70;;;19.60;75.40;;;-142.21;100.00;112049.66;5114278;28;20228;-78
2022/07/01 03:28:04;;;;;;;1.33;0.97;;;19.60;75.70;;;-142.21;100.00;112049.66;5114247;28;20211;-79
2022/07/01 03:30:32;;;;;;;1.27;1.17;;;19.50;75.60;;;-142.21;100.00;112049.66;5113965;28;20249;-79
2022/07/01 03:33:02;;;;;;;2.13;1.37;;;19.40;75.60;;;-142.21;100.00;112049.66;5114091;28;20233;-79
2022/07/01 03:35:40;;;;;;;1.27;1.17;;;19.30;75.90;;;-142.21;100.00;112049.66;5113444;28;20255;-79
2022/07/01 03:38:09;;;;;;;1.30;1.20;;;19.30;76.10;;;-142.21;100.00;112049.66;5113441;28;20219;-78
2022/07/01 03:40:36;;;;;;;2.73;1.27;;;19.20;77.40;;;-142.21;100.00;112049.66;5113662;28;20219;-78
2022/07/01 03:43:04;;;;;;;1.57;1.27;;;19.20;76.70;;;-142.21;100.00;112049.66;5113995;28;20203;-79
2022/07/01 03:45:32;;;;;;;2.17;1.23;;;19.30;76.50;;;-142.21;100.00;112049.66;5113283;28;20216;-79
2022/07/01 03:48:00;;;;;;;1.60;1.50;;;19.20;76.70;;;-142.21;100.00;112049.66;5113910;28;20246;-79
2022/07/01 03:50:27;;;;;;;2.63;1.47;;;19.20;77.10;;;-142.21;100.00;112049.66;5113331;28;20208;-79
2022/07/01 03:55:42;;;;;;;2.57;1.40;;;19.40;76.40;;;-142.21;100.00;112049.66;5098168;28;20337;-79
2022/07/01 03:58:09;;;;;;;2.20;1.20;;;19.50;76.30;;;-142.21;100.00;112049.66;5112846;28;20204;-78
2022/07/01 04:00:39;;;;;;;2.00;1.80;;;19.50;75.70;;;-142.21;100.00;112049.66;5113285;28;20863;-78
2022/07/01 04:03:07;;;;;;;1.40;1.30;;;19.50;75.80;;;-142.21;100.00;112049.66;5113240;28;20208;-77
2022/07/01 04:05:36;;;;;;;3.43;1.40;;;19.40;76.00;;;-142.21;100.00;112049.66;5113114;28;20298;-78
2022/07/01 04:08:07;;;;;;;1.30;1.20;;;19.40;76.30;;;-142.21;100.00;112049.66;5113165;28;20291;-78
2022/07/01 04:10:35;;;;;;;1.70;1.60;;;19.30;76.30;;;-142.21;100.00;112049.66;5095261;28;20525;-78
2022/07/01 04:13:05;;;;;;;1.33;1.23;;;19.20;76.40;;;-142.21;100.00;112049.66;5113430;28;20263;-79
2022/07/01 04:15:33;;;;;;;3.00;1.50;;;19.20;76.80;;;-142.21;100.00;112049.66;5092456;28;20521;-79
2022/07/01 04:18:00;;;;;;;2.87;1.70;;;19.20;76.10;;;-142.21;100.00;112049.66;5104346;28;20196;-79
2022/07/01 04:20:27;;;;;;;1.33;1.23;;;19.00;76.60;;;-142.21;100.00;112049.66;5112311;28;20306;-79
2022/07/01 04:22:55;;;;;;;1.77;1.67;;;19.00;76.30;;;-142.21;100.00;112049.66;5112793;28;20450;-78
2022/07/01 04:25:22;;;;;;;1.30;1.27;;;19.10;76.90;;;-142.21;100.00;112049.66;5112056;28;20200;-79
2022/07/01 04:27:50;;;;;;;1.60;1.50;;;19.00;76.20;;;-142.21;100.00;112049.66;5112831;28;20291;-79
2022/07/01 04:30:18;;;;;;;2.80;1.50;;;19.10;76.10;;;-142.21;100.00;112049.66;5112381;28;20735;-78
2022/07/01 04:32:45;;;;;;;1.60;1.23;;;19.10;76.00;;;-142.21;100.00;112049.66;5112752;28;20652;-78
2022/07/01 04:35:14;;;;;;;2.33;1.40;;;19.10;76.20;;;-142.21;100.00;112049.66;5112500;28;20473;-79
2022/07/01 04:37:41;;;;;;;1.33;1.23;;;19.20;75.50;;;-142.21;100.00;112049.66;5112410;28;21004;-79
2022/07/01 04:40:09;;;;;;;2.33;1.17;;;19.20;75.70;;;-142.21;100.00;112049.66;5095162;28;20235;-79
2022/07/01 04:42:35;;;;;;;1.23;1.10;;;19.20;75.40;;;-142.21;100.00;112049.66;5092738;28;20206;-79
2022/07/01 04:45:03;;;;;;;1.87;1.40;;;19.20;75.50;;;-142.21;100.00;112049.66;5108325;28;20262;-78
2022/07/01 04:47:32;;;;;;;1.70;1.07;;;19.10;75.60;;;-142.21;100.00;112049.66;5112445;28;20459;-79
2022/07/01 04:50:01;;;;;;;3.20;1.50;;;19.00;75.90;;;-142.21;100.00;112049.66;5112957;28;20453;-78
2022/07/01 04:52:29;;;;;;;1.47;1.03;;;19.00;76.10;;;-142.21;100.00;112049.66;5112174;28;20242;-78
2022/07/01 04:54:56;;;;;;;2.73;1.57;;;19.10;76.00;;;-142.21;100.00;112049.66;5113035;28;20574;-78
2022/07/01 04:57:23;;;;;;;1.40;1.03;;;19.20;76.00;;;-142.21;100.00;112049.66;5112348;28;20894;-76
2022/07/01 04:59:54;;;;;;;3.00;0.97;;;19.30;76.10;;;-142.21;100.00;112049.66;5112731;28;20528;-76
2022/07/01 05:02:21;;;;;;;1.03;0.93;;;19.30;75.50;;;-142.21;100.00;112049.66;5112146;28;20486;-78
2022/07/01 05:04:52;;;;;;;2.07;1.10;;;19.30;75.40;;;-142.21;100.00;112049.66;5112567;28;20226;-78
2022/07/01 05:07:31;;;;;;;1.73;0.90;;;19.40;76.00;;;-142.21;100.00;112049.66;5111615;28;20279;-78
2022/07/01 05:09:59;;;;;;;0.83;0.80;;;19.40;75.50;;;-142.21;100.00;112049.66;5112767;28;20322;-77
2022/07/01 05:12:26;;;;;;;1.30;1.10;;;19.40;75.70;;;-142.21;100.00;112049.66;5112376;28;20208;-78
2022/07/01 05:14:54;;;;;;;1.40;0.90;;;19.50;75.10;;;-142.21;100.00;112049.66;5112863;28;20436;-78
2022/07/01 05:21:55;;;;;;;0.70;0.70;;;19.50;75.00;;;-142.21;100.00;112049.66;5112437;28;20251;-78
2022/07/01 05:22:56;;;;;;;1.53;1.00;;;19.50;75.20;;;-142.21;100.00;112049.66;5107230;28;20210;-79
2022/07/01 05:25:23;;;;;;;1.23;0.90;;;19.50;75.20;;;-142.21;100.00;112049.66;5112884;28;20290;-79
2022/07/01 05:27:50;;;;;;;2.40;1.20;;;19.50;74.70;;;-142.21;100.00;112049.66;5112959;28;20434;-78
2022/07/01 05:30:18;;;;;;;0.83;0.83;;;19.40;75.10;;;-142.21;100.00;112049.66;5094665;28;20449;-78
2022/07/01 05:32:45;;;;;;;2.60;1.20;;;19.40;75.30;;;-142.21;100.00;112049.66;5092405;28;20249;-79
2022/07/01 05:35:14;;;;;;;2.87;0.70;;;19.50;75.00;;;-142.21;100.00;112049.66;5093792;28;20265;-78
2022/07/01 05:37:43;;;;;;;1.20;1.10;;;19.60;75.70;;;-142.21;100.00;112049.66;5094653;28;20235;-78
2022/07/01 05:40:12;;;;;;;1.90;1.03;;;19.60;75.00;;;-142.21;100.00;112049.66;5111144;28;20806;-79
2022/07/01 05:42:39;;;;;;;2.40;1.40;;;19.60;75.00;;;-142.21;100.00;112049.66;5134226;28;20196;-78
2022/07/01 05:45:10;;;;;;;2.57;1.30;;;19.60;75.50;;;-142.21;100.00;112049.66;5124108;28;20224;-78
2022/07/01 05:47:38;;;;;;;1.67;1.17;;;19.60;75.40;;;-142.21;100.00;112049.66;5115696;28;20628;-79
2022/07/01 05:50:06;;;;;;;1.70;1.40;;;19.60;75.70;;;-142.21;100.00;112049.66;5115790;28;20483;-80
2022/07/01 05:52:35;;;;;;;1.20;1.10;;;19.60;75.30;;;-142.21;100.00;112049.66;5115244;28;20430;-78
2022/07/01 05:55:02;;;;;;;1.87;1.30;;;19.60;75.40;;;-142.21;100.00;112049.66;5116280;28;20294;-81
2022/07/01 05:57:29;;;;;;;1.30;1.20;;;19.60;74.80;;;-142.21;100.00;112049.66;5115511;28;20638;-79
2022/07/01 05:59:57;;;;;;;1.47;1.20;;;19.60;75.50;;;-142.21;100.00;112049.66;5115622;28;20261;-79
2022/07/01 06:02:24;;;;;;;1.30;1.20;;;19.50;75.20;;;-142.21;100.00;112049.66;5115473;28;20291;-80
2022/07/01 06:04:51;;;;;;;2.07;1.30;;;19.50;75.60;;;-142.21;100.00;112049.66;5115075;28;20235;-79
2022/07/01 06:07:18;;;;;;;1.47;1.37;;;19.40;76.00;;;-142.21;100.00;112049.66;5114939;28;20199;-79
2022/07/01 06:09:47;;;;;;;2.60;1.53;;;19.40;75.90;;;-142.21;100.00;112049.66;5115318;28;20263;-79
2022/07/01 06:12:14;;;;;;;1.57;1.33;;;19.40;76.00;;;-142.21;100.00;112049.66;5115541;28;20832;-79
2022/07/01 06:14:41;;;;;;;3.33;1.50;;;19.40;76.20;;;-142.21;100.00;112049.66;5115357;28;20728;-79
2022/07/01 06:17:09;;;;;;;1.77;1.50;;;19.40;76.10;;;-142.21;100.00;112049.66;5115159;28;20223;-79
2022/07/01 06:19:38;;;;;;;3.27;1.27;;;19.40;76.40;;;-142.21;100.00;112049.66;5114791;28;20214;-80
2022/07/01 06:22:06;;;;;;;1.90;1.60;;;19.40;76.70;;;-142.21;100.00;112049.66;5115371;28;20200;-79
2022/07/01 06:24:33;;;;;;;1.60;1.50;;;19.40;76.60;;;-142.21;100.00;112049.66;5114869;28;20495;-77
2022/07/01 06:27:04;;;;;;;1.90;1.70;;;19.40;76.70;;;-142.21;100.00;112049.66;5115576;28;20232;-79
2022/07/01 06:29:31;;;;;;;4.23;1.40;;;19.50;77.40;;;-142.21;100.00;112049.66;5114686;28;20184;-78
2022/07/01 06:31:59;;;;;;;4.07;1.60;;;19.60;76.40;;;-142.21;100.00;112049.66;5115833;28;20199;-77
2022/07/01 06:34:26;;;;;;;1.80;1.70;;;19.60;75.80;;;-142.21;100.00;112049.66;5114791;28;20226;-79
2022/07/01 06:36:53;;;;;;;1.53;1.43;;;19.60;76.10;;;-142.21;100.00;112049.66;5114986;28;20269;-79
2022/07/01 06:39:20;;;;;;;2.40;1.47;;;19.70;76.00;;;-142.21;100.00;112049.66;5114617;28;20212;-78
2022/07/01 06:41:47;;;;;;;1.83;1.47;;;19.70;76.10;;;-142.21;100.00;112049.66;5115157;28;20276;-80
2022/07/01 06:44:16;;;;;;;1.87;1.77;;;19.70;75.90;;;-142.21;100.00;112049.66;5115222;28;20574;-80
2022/07/01 06:46:43;;;;;;;1.73;1.63;;;19.70;75.30;;;-142.21;100.00;112049.66;5114549;28;20258;-80
2022/07/01 06:49:10;;;;;;;2.00;1.53;;;19.70;75.50;;;-142.21;100.00;112049.66;5113717;28;20207;-80
2022/07/01 06:51:38;;;;;;;1.50;1.40;;;19.70;75.80;;;-142.21;100.00;112049.66;5114740;28;20591;-80
2022/07/01 06:54:05;;;;;;;3.57;1.60;;;19.70;75.50;;;-142.21;100.00;112049.66;5115030;28;20614;-78
2022/07/01 06:56:35;;;;;;;2.00;1.73;;;19.60;75.70;;;-142.21;100.00;112049.66;5114316;28;20318;-79
2022/07/01 06:59:03;;;;;;;3.23;1.73;;;19.60;75.70;;;-142.21;100.00;112049.66;5114802;28;20204;-80
2022/07/01 07:01:32;;;;;;;2.00;1.70;;;19.50;76.10;;;-142.21;100.00;112049.66;5114346;28;20263;-79
2022/07/01 07:03:59;;;;;;;2.03;1.83;;;19.50;76.30;;;-142.21;100.00;112049.66;5096837;28;20239;-81
2022/07/01 07:06:26;;;;;;;3.03;1.87;;;19.50;76.40;;;-142.21;100.00;112049.66;5113886;28;20481;-79
2022/07/01 07:08:53;;;;;;;2.80;2.50;;;19.40;77.00;;;-142.21;100.00;112049.66;5114408;28;20267;-80
2022/07/01 07:11:21;;;;;;;2.30;2.00;;;19.30;77.30;;;-142.21;100.00;112049.66;5114717;28;20276;-81
2022/07/01 07:13:48;;;;;;;3.40;2.03;;;19.30;77.20;;;-142.21;100.00;112049.66;5114524;28;20498;-79
2022/07/01 07:16:15;;;;;;;3.10;1.90;;;19.20;77.60;;;-142.21;100.00;112049.66;5114517;28;20204;-79
2022/07/01 07:18:44;;;;;;;3.97;2.10;;;19.30;77.80;;;-142.21;100.00;112049.66;5114295;28;20652;-77
2022/07/01 07:21:11;;;;;;;2.40;2.00;;;19.30;77.70;;;-142.21;100.00;112049.66;5114548;28;20469;-80
2022/07/01 07:23:38;;;;;;;3.90;2.83;;;19.40;77.50;;;-142.21;100.00;112049.66;5114123;28;20208;-77
2022/07/01 07:26:05;;;;;;;2.23;2.00;;;19.40;77.20;;;-142.21;100.00;112049.66;5114699;28;20212;-80
2022/07/01 07:28:33;;;;;;;2.77;2.20;;;19.30;77.50;;;-142.21;100.00;112049.66;5113673;28;20231;-79
2022/07/01 07:31:00;;;;;;;2.67;2.10;;;19.40;77.60;;;-142.21;100.00;112049.66;5113903;28;20247;-77
2022/07/01 07:33:28;;;;;;;2.23;2.00;;;19.50;77.40;;;-142.21;100.00;112049.66;5113772;28;20200;-79
2022/07/01 07:35:56;;;;;;;2.53;2.33;;;19.40;77.30;;;-142.21;100.00;112049.66;5113942;28;20288;-81
2022/07/01 07:38:24;;;;;;;4.00;2.40;;;19.40;77.30;;;-142.21;100.00;112049.66;5113323;28;20231;-79
2022/07/01 07:40:51;;;;;;;3.50;2.23;;;19.50;77.90;;;-142.21;100.00;112049.66;5114227;28;20266;-80
2022/07/01 07:43:18;;;;;;;3.87;2.90;;;19.60;77.60;;;-142.21;100.00;112049.66;5113729;28;20434;-80
2022/07/01 07:45:46;;;;;;;2.50;2.30;;;19.70;77.10;;;-142.21;100.00;112049.66;5113513;28;20469;-80
2022/07/01 07:48:13;;;;;;;2.50;2.20;;;19.70;77.00;;;-142.21;100.00;112049.66;5113813;28;20465;-80
2022/07/01 07:50:41;;;;;;;2.83;2.43;;;19.80;77.50;;;-142.21;100.00;112049.66;5113486;28;20203;-80
2022/07/01 07:53:11;;;;;;;2.60;2.07;;;19.90;77.80;;;-142.21;100.00;112049.66;5114019;28;20258;-80
2022/07/01 07:55:39;;;;;;;4.63;2.50;;;20.00;77.40;;;-142.21;100.00;112049.66;5113572;28;20192;-78
2022/07/01 07:58:06;;;;;;;2.50;2.30;;;20.00;76.50;;;-142.21;100.00;112049.66;5113366;28;20228;-80
2022/07/01 08:00:34;;;;;;;2.90;2.27;;;20.00;76.30;;;-142.21;100.00;112049.66;5113166;28;20199;-81
2022/07/01 08:03:01;;;;;;;2.57;2.03;;;19.90;75.80;;;-142.21;100.00;112049.66;5113631;28;20320;-78
2022/07/01 08:05:28;;;;;;;2.73;1.97;;;19.90;76.10;;;-142.21;100.00;112049.66;5112844;28;20204;-80
2022/07/01 08:07:56;;;;;;;2.90;1.97;;;19.90;75.80;;;-142.21;100.00;112049.66;5113458;28;20668;-79
2022/07/01 08:10:24;;;;;;;3.57;2.17;;;19.90;75.50;;;-142.21;100.00;112049.66;5112815;28;20268;-80
2022/07/01 08:12:51;;;;;;;2.30;1.80;;;19.80;75.10;;;-142.21;100.00;112049.66;5113556;28;20264;-80
2022/07/01 08:15:19;;;;;;;2.47;2.27;;;19.80;75.60;;;-142.21;100.00;112049.66;5113158;28;20290;-79
2022/07/01 08:17:46;;;;;;;2.80;1.80;;;19.80;75.90;;;-142.21;100.00;112049.66;5112707;28;20284;-79
2022/07/01 08:20:13;;;;;;;2.10;1.90;;;19.90;75.90;;;-142.21;100.00;112049.66;5113272;28;20199;-80
2022/07/01 08:22:40;;;;;;;2.93;2.30;;;19.90;75.50;;;-142.21;100.00;112049.66;5112602;28;20212;-78
2022/07/01 08:25:09;;;;;;;2.90;2.10;;;19.90;76.40;;;-142.21;100.00;112049.66;5113531;28;20227;-80
2022/07/01 08:27:38;;;;;;;2.63;1.90;;;19.90;76.30;;;-142.21;100.00;112049.66;5112813;28;20208;-79
2022/07/01 08:30:07;;;;;;;2.60;1.90;;;19.80;75.90;;;-142.21;100.00;112049.66;5112974;28;20290;-79
2022/07/01 08:32:34;;;;;;;3.90;2.60;;;19.80;76.10;;;-142.21;100.00;112049.66;5112688;28;20290;-79
2022/07/01 08:35:01;;;;;;;2.47;1.90;;;19.70;75.80;;;-142.21;100.00;112049.66;5112734;28;20257;-80
2022/07/01 08:37:29;;;;;;;1.90;1.70;;;19.70;76.70;;;-142.21;100.00;112049.66;5112580;28;20288;-80
2022/07/01 08:39:56;;;;;;;2.60;1.90;;;19.70;76.90;;;-142.21;100.00;112049.66;5113205;28;20260;-80
2022/07/01 08:42:23;;;;;;;1.90;1.80;;;19.70;76.50;;;-142.21;100.00;112049.66;5112065;28;20584;-79
2022/07/01 08:44:52;;;;;;;2.17;1.67;;;19.80;76.60;;;-142.21;100.00;112049.66;5112596;28;20215;-80
2022/07/01 08:47:19;;;;;;;2.50;1.73;;;19.90;77.00;;;-142.21;100.00;112049.66;5112895;28;20203;-77
2022/07/01 08:49:47;;;;;;;3.27;1.77;;;20.00;76.10;;;-142.21;100.00;112049.66;5112577;28;20207;-81
2022/07/01 08:52:14;;;;;;;2.40;2.10;;;20.10;76.30;;;-142.21;100.00;112049.66;5112893;28;20199;-80
2022/07/01 08:54:41;;;;;;;1.90;1.80;;;20.20;76.00;;;-142.21;100.00;112049.66;5112468;28;20207;-79
2022/07/01 08:57:09;;;;;;;1.70;1.60;;;20.30;76.00;;;-142.21;100.00;112049.66;5112592;28;20280;-79
2022/07/01 08:59:37;;;;;;;2.27;1.97;;;20.20;75.40;;;-142.21;100.00;112049.66;5112258;28;20593;-79
2022/07/01 09:02:06;;;;;;;2.30;1.93;;;20.20;75.60;;;-142.21;100.00;112049.66;5113098;28;20223;-79
2022/07/01 09:04:35;;;;;;;3.47;1.90;;;20.20;76.10;;;-142.21;100.00;112049.66;5112811;28;20215;-80
2022/07/01 09:07:08;;;;;;;3.13;2.13;;;20.20;76.00;;;-142.21;100.00;112049.66;5112993;28;20586;-78
2022/07/01 09:09:37;;;;;;;2.37;2.17;;;20.20;75.70;;;-142.21;100.00;112049.66;5113209;28;20235;-79
2022/07/01 09:12:06;;;;;;;1.93;1.80;;;20.20;74.90;;;-142.21;100.00;112049.66;5137153;28;20211;-78
2022/07/01 09:14:39;;;;;;;1.70;1.60;;;20.20;73.40;;;-142.21;100.00;112049.66;5139763;28;20176;-79
2022/07/01 09:17:08;;;;;;;2.27;1.80;;;20.20;73.50;;;-142.21;100.00;112049.66;5119574;28;20679;-79
2022/07/01 09:19:38;;;;;;;1.70;1.60;;;20.20;72.90;;;-142.21;100.00;112049.66;5116775;28;20204;-78
2022/07/01 09:22:06;;;;;;;2.30;1.50;;;20.20;73.40;;;-142.21;100.00;112049.66;5117172;28;20671;-78
2022/07/01 09:24:35;;;;;;;2.13;1.60;;;20.30;73.40;;;-142.21;100.00;112049.66;5116539;28;20265;-78
2022/07/01 09:27:09;;;;;;;2.37;2.00;;;20.50;72.70;;;-142.21;100.00;112049.66;5116437;28;20200;-77
2022/07/01 09:29:39;;;;;;;1.53;1.43;;;20.60;73.00;;;-142.21;100.00;112049.66;5116420;28;20555;-78
2022/07/01 09:32:11;;;;;;;2.50;1.60;;;20.90;73.40;;;-142.21;100.00;112049.66;5116687;28;20203;-80
2022/07/01 09:34:43;;;;;;;1.53;1.43;;;21.20;72.50;;;-142.21;100.00;112049.66;5116460;28;20279;-79
2022/07/01 09:37:14;;;;;;;2.13;1.47;;;21.20;71.40;;;-142.21;100.00;112049.66;5116656;28;20220;-78
2022/07/01 09:39:46;;;;;;;1.23;1.13;;;21.20;70.50;;;-142.21;97.36;112049.66;5116260;28;20267;-79
2022/07/01 09:42:14;;;;;;;2.27;1.40;;;20.90;67.80;;;-142.21;97.39;112049.66;5115916;28;20230;-78
2022/07/01 09:44:55;;;;;;;2.70;1.80;;;20.90;68.50;;;-142.21;98.23;112049.66;5115889;28;20251;-79
2022/07/01 09:47:26;;;;;;;1.80;1.70;;;20.80;68.50;;;-142.21;98.30;112049.66;5116149;28;20211;-79
2022/07/01 09:49:55;;;;;;;1.90;1.27;;;20.80;68.80;;;-142.21;96.23;112049.66;5116380;28;20252;-80
2022/07/01 09:52:23;;;;;;;1.30;1.20;;;20.80;67.90;;;-142.21;99.30;112049.66;5116026;28;20231;-78
2022/07/01 09:54:51;;;;;;;1.60;1.50;;;20.80;69.10;;;-142.21;100.00;112049.66;5115376;28;20200;-80
2022/07/01 09:57:21;;;;;;;1.63;1.53;;;21.00;70.20;;;-142.21;99.73;112049.66;5115813;28;20207;-80
2022/07/01 09:59:50;;;;;;;2.53;1.27;;;21.20;69.40;;;-142.21;97.07;112049.66;5115353;28;20196;-76
2022/07/01 10:02:21;;;;;;;1.57;1.40;;;21.50;68.10;;;-142.21;93.77;112049.66;5116104;28;20657;-78